createdAt,value
2018-09-10T00:01:14.127Z,17.20
2018-09-10T00:03:42.846Z,17.20
2018-09-10T00:06:11.327Z,17.10
2018-09-10T00:08:39.816Z,17.00
2018-09-10T00:11:08.426Z,17.10
2018-09-10T00:13:36.981Z,17.10
2018-09-10T00:16:05.760Z,17.10
2018-09-10T00:18:34.272Z,17.20
2018-09-10T00:21:02.911Z,17.20
2018-09-10T00:23:31.850Z,17.10
2018-09-10T00:26:00.944Z,17.00
2018-09-10T00:28:29.920Z,17.10
2018-09-10T00:30:58.432Z,17.20
2018-09-10T00:33:27.408Z,17.20
2018-09-10T00:35:56.128Z,17.30
2018-09-10T00:38:25.421Z,17.30
2018-09-10T00:40:54.069Z,17.30
2018-09-10T00:43:22.788Z,17.20
2018-09-10T00:45:51.284Z,17.10
2018-09-10T00:48:19.716Z,16.90
2018-09-10T00:50:48.398Z,17.00
2018-09-10T00:53:17.017Z,17.10
2018-09-10T00:55:46.292Z,17.00
2018-09-10T00:58:14.733Z,16.90
2018-09-10T01:00:43.853Z,16.80
2018-09-10T01:03:12.368Z,16.80
2018-09-10T01:05:40.844Z,16.70
2018-09-10T01:08:09.426Z,16.70
2018-09-10T01:10:38.123Z,16.70
2018-09-10T01:13:06.669Z,16.80
2018-09-10T01:15:35.409Z,16.70
2018-09-10T01:18:04.052Z,16.60
2018-09-10T01:20:33.513Z,16.60
2018-09-10T01:23:02.129Z,16.60
2018-09-10T01:25:30.737Z,16.60
2018-09-10T01:27:59.156Z,16.60
2018-09-10T01:30:27.780Z,16.50
2018-09-10T01:32:56.428Z,16.40
2018-09-10T01:35:25.052Z,16.50
2018-09-10T01:37:53.761Z,16.50
2018-09-10T01:40:22.244Z,16.50
2018-09-10T01:42:51.117Z,16.50
2018-09-10T01:45:19.532Z,16.50
2018-09-10T01:47:48.509Z,16.40
2018-09-10T01:50:17.854Z,16.30
2018-09-10T01:52:46.372Z,16.30
2018-09-10T01:55:14.780Z,16.30
2018-09-10T01:57:43.228Z,16.30
2018-09-10T02:00:12.189Z,16.20
2018-09-10T02:02:40.597Z,16.10
2018-09-10T02:05:09.140Z,16.10
2018-09-10T02:07:37.880Z,16.10
2018-09-10T02:10:07.224Z,16.10
2018-09-10T02:12:35.804Z,16.20
2018-09-10T02:15:04.303Z,16.20
2018-09-10T02:17:37.584Z,16.20
2018-09-10T02:20:06.234Z,16.20
2018-09-10T02:22:34.721Z,16.30
2018-09-10T02:25:03.252Z,16.40
2018-09-10T02:27:32.805Z,16.50
2018-09-10T02:30:01.186Z,16.50
2018-09-10T02:32:30.013Z,16.50
2018-09-10T02:34:58.982Z,16.40
2018-09-10T02:37:27.496Z,16.40
2018-09-10T02:39:56.649Z,16.50
2018-09-10T02:42:25.053Z,16.60
2018-09-10T02:44:53.518Z,16.60
2018-09-10T02:47:22.076Z,16.60
2018-09-10T02:49:50.464Z,16.60
2018-09-10T02:52:19.466Z,16.70
2018-09-10T02:54:48.617Z,16.70
2018-09-10T02:57:17.961Z,16.70
2018-09-10T02:59:46.548Z,16.90
2018-09-10T03:02:15.553Z,16.90
2018-09-10T03:04:45.350Z,16.80
2018-09-10T03:07:15.509Z,16.80
2018-09-10T03:09:44.527Z,16.90
2018-09-10T03:12:13.143Z,16.90
2018-09-10T03:14:41.771Z,16.80
2018-09-10T03:17:10.440Z,16.70
2018-09-10T03:19:39.080Z,16.90
2018-09-10T03:22:07.454Z,16.90
2018-09-10T03:24:35.878Z,17.00
2018-09-10T03:27:04.953Z,16.90
2018-09-10T03:29:33.344Z,17.00
2018-09-10T03:32:01.813Z,16.90
2018-09-10T03:34:30.201Z,16.90
2018-09-10T03:36:58.905Z,16.80
2018-09-10T03:39:27.418Z,16.70
2018-09-10T03:41:55.946Z,16.70
2018-09-10T03:44:24.364Z,16.80
2018-09-10T03:46:52.789Z,16.90
2018-09-10T03:49:21.456Z,17.00
2018-09-10T03:51:50.677Z,16.80
2018-09-10T03:54:19.788Z,16.80
2018-09-10T03:56:48.900Z,16.80
2018-09-10T03:59:18.027Z,17.00
2018-09-10T04:01:46.590Z,16.90
2018-09-10T04:04:15.920Z,16.90
2018-09-10T04:06:44.465Z,16.80
2018-09-10T04:09:12.865Z,17.00
2018-09-10T04:11:41.944Z,17.00
2018-09-10T04:14:10.504Z,17.00
2018-09-10T04:16:39.753Z,17.10
2018-09-10T04:19:08.208Z,17.20
2018-09-10T04:21:36.721Z,17.30
2018-09-10T04:24:05.288Z,17.20
2018-09-10T04:26:33.893Z,17.20
2018-09-10T04:29:02.325Z,17.10
2018-09-10T04:31:30.828Z,17.30
2018-09-10T04:33:59.314Z,17.30
2018-09-10T04:36:28.108Z,17.20
2018-09-10T04:38:56.589Z,17.30
2018-09-10T04:41:25.147Z,17.30
2018-09-10T04:43:53.669Z,17.20
2018-09-10T04:46:22.712Z,17.20
2018-09-10T04:48:51.232Z,17.30
2018-09-10T04:51:19.697Z,17.40
2018-09-10T04:53:48.877Z,17.30
2018-09-10T04:56:17.488Z,17.20
2018-09-10T04:58:46.048Z,17.10
2018-09-10T05:01:14.709Z,17.20
2018-09-10T05:03:43.456Z,17.30
2018-09-10T05:06:12.624Z,17.40
2018-09-10T05:08:41.316Z,17.40
2018-09-10T05:11:09.915Z,17.40
2018-09-10T05:13:38.477Z,17.50
2018-09-10T05:16:06.871Z,17.50
2018-09-10T05:18:35.459Z,17.60
2018-09-10T05:21:03.957Z,17.60
2018-09-10T05:23:32.868Z,17.50
2018-09-10T05:26:01.296Z,17.60
2018-09-10T05:28:29.867Z,17.70
2018-09-10T05:30:58.384Z,17.50
2018-09-10T05:33:27.104Z,17.60
2018-09-10T05:35:56.473Z,17.50
2018-09-10T05:38:24.957Z,17.60
2018-09-10T05:40:54.109Z,17.60
2018-09-10T05:43:23.341Z,17.70
2018-09-10T05:45:51.863Z,17.80
2018-09-10T05:48:20.292Z,17.90
2018-09-10T05:50:48.721Z,18.00
2018-09-10T05:53:18.022Z,17.90
2018-09-10T05:55:47.013Z,18.10
2018-09-10T05:58:16.197Z,18.00
2018-09-10T06:00:44.645Z,18.30
2018-09-10T06:03:13.966Z,18.30
2018-09-10T06:05:42.561Z,18.30
2018-09-10T06:08:11.023Z,18.30
2018-09-10T06:10:40.080Z,18.30
2018-09-10T06:13:09.352Z,18.20
2018-09-10T06:15:38.008Z,18.30
2018-09-10T06:18:06.672Z,18.30
2018-09-10T06:20:35.533Z,18.40
2018-09-10T06:23:03.941Z,18.30
2018-09-10T06:25:32.653Z,18.40
2018-09-10T06:28:01.373Z,18.40
2018-09-10T06:32:59.013Z,18.50
2018-09-10T06:35:27.605Z,18.50
2018-09-10T06:37:56.090Z,18.50
2018-09-10T06:40:25.114Z,18.50
2018-09-10T06:42:53.665Z,18.50
2018-09-10T06:45:22.709Z,18.60
2018-09-10T06:47:51.630Z,18.50
2018-09-10T06:50:20.073Z,18.50
2018-09-10T06:52:48.644Z,18.60
2018-09-10T06:55:18.170Z,18.50
2018-09-10T06:57:46.744Z,18.50
2018-09-10T07:00:15.425Z,18.50
2018-09-10T07:02:45.024Z,18.60
2018-09-10T07:05:13.694Z,18.70
2018-09-10T07:07:42.381Z,18.90
2018-09-10T07:10:10.912Z,18.90
2018-09-10T07:12:39.497Z,19.10
2018-09-10T07:15:08.024Z,19.20
2018-09-10T07:17:36.615Z,19.20
2018-09-10T07:20:06.428Z,19.30
2018-09-10T07:22:35.944Z,19.30
2018-09-10T07:25:04.850Z,19.40
2018-09-10T07:27:33.256Z,19.50
2018-09-10T07:30:01.878Z,19.40
2018-09-10T07:32:30.306Z,19.20
2018-09-10T07:34:58.823Z,19.30
2018-09-10T07:37:27.517Z,19.30
2018-09-10T07:39:56.041Z,19.20
2018-09-10T07:42:25.358Z,19.20
2018-09-10T07:44:54.716Z,19.30
2018-09-10T07:47:23.717Z,19.20
2018-09-10T07:49:52.356Z,19.20
2018-09-10T07:52:21.629Z,19.20
2018-09-10T07:54:50.328Z,19.30
2018-09-10T07:57:19.305Z,19.20
2018-09-10T07:59:48.297Z,19.20
2018-09-10T18:16:54.905Z,21.40
2018-09-10T18:19:24.117Z,21.40
2018-09-10T18:21:52.747Z,21.30
2018-09-10T18:24:21.913Z,21.30
2018-09-10T18:26:51.142Z,21.30
2018-09-10T18:29:19.765Z,21.30
2018-09-10T18:31:48.422Z,21.20
2018-09-10T18:34:16.998Z,21.20
2018-09-10T18:36:45.981Z,21.20
2018-09-10T18:39:16.860Z,21.20
2018-09-10T18:41:45.391Z,21.10
2018-09-10T18:44:14.060Z,21.20
2018-09-10T18:46:42.732Z,21.10
2018-09-10T18:49:11.374Z,21.10
2018-09-10T18:51:40.333Z,21.10
2018-09-10T18:54:09.508Z,21.10
2018-09-10T18:56:38.014Z,21.00
2018-09-10T18:59:07.124Z,21.10
2018-09-10T19:01:35.778Z,21.10
2018-09-10T19:04:04.537Z,21.10
2018-09-10T19:06:33.407Z,21.10
2018-09-10T19:09:02.902Z,21.00
2018-09-10T19:11:33.243Z,21.00
2018-09-10T19:14:02.028Z,20.90
2018-09-10T19:16:30.594Z,20.90
2018-09-10T19:18:59.266Z,20.90
2018-09-10T19:21:28.101Z,20.90
2018-09-10T19:23:57.465Z,20.90
2018-09-10T19:26:25.933Z,20.90
2018-09-10T19:28:54.601Z,20.80
2018-09-10T19:31:23.308Z,20.80
2018-09-10T19:33:53.014Z,20.70
2018-09-10T19:36:21.916Z,20.70
2018-09-10T19:38:50.642Z,20.60
2018-09-10T19:41:19.901Z,20.50
2018-09-10T19:43:48.488Z,20.60
2018-09-10T19:46:17.186Z,20.50
2018-09-10T19:48:45.726Z,20.50
2018-09-10T19:51:14.284Z,20.50
2018-09-10T19:53:43.248Z,20.40
2018-09-10T19:56:11.841Z,20.40
2018-09-10T19:58:40.374Z,20.40
2018-09-10T20:01:08.913Z,20.40
2018-09-10T20:03:37.471Z,20.30
2018-09-10T20:06:05.970Z,20.30
2018-09-10T20:08:35.177Z,20.30
2018-09-10T20:11:03.917Z,20.30
2018-09-10T20:13:33.351Z,20.30
2018-09-10T20:16:02.773Z,20.30
2018-09-10T20:18:31.327Z,20.30
2018-09-10T20:21:00.001Z,20.30
2018-09-10T20:23:28.637Z,20.30
2018-09-10T20:25:58.032Z,20.20
2018-09-10T20:28:26.728Z,20.30
2018-09-10T20:30:55.428Z,20.30
2018-09-10T20:33:24.000Z,20.30
2018-09-10T20:36:00.208Z,20.30
2018-09-10T20:38:28.760Z,20.20
2018-09-10T20:40:58.017Z,20.30
2018-09-10T20:43:27.568Z,20.20
2018-09-10T20:45:56.294Z,20.30
2018-09-10T20:48:25.285Z,20.20
2018-09-10T20:50:54.388Z,20.20
2018-09-10T20:53:22.845Z,20.20
2018-09-10T20:55:52.009Z,20.20
2018-09-10T20:58:20.549Z,20.10
2018-09-10T21:00:49.192Z,20.10
2018-09-10T21:03:17.815Z,20.10
2018-09-10T21:05:46.480Z,19.90
2018-09-10T21:08:15.206Z,19.70
2018-09-10T21:10:43.889Z,19.60
2018-09-10T21:13:12.483Z,19.70
2018-09-10T21:15:40.908Z,19.70
2018-09-10T21:18:09.957Z,19.70
2018-09-10T21:20:38.501Z,19.70
2018-09-10T21:23:07.596Z,19.60
2018-09-10T21:25:36.216Z,19.60
2018-09-10T21:28:05.487Z,19.60
2018-09-10T21:30:33.886Z,19.70
2018-09-10T21:33:03.316Z,19.60
2018-09-10T21:35:32.464Z,19.60
2018-09-10T21:38:00.928Z,19.50
2018-09-10T21:40:29.861Z,19.50
2018-09-10T21:42:58.456Z,19.50
2018-09-10T21:45:27.103Z,19.40
2018-09-10T21:47:55.524Z,19.50
2018-09-10T21:50:24.287Z,19.40
2018-09-10T21:52:53.518Z,19.40
2018-09-10T21:55:22.736Z,19.50
2018-09-10T21:57:51.274Z,19.60
2018-09-10T22:00:19.871Z,19.60
2018-09-10T22:02:48.977Z,19.60
2018-09-10T22:05:17.567Z,19.70
2018-09-10T22:07:46.801Z,19.50
2018-09-10T22:10:15.307Z,19.50
2018-09-10T22:12:44.383Z,19.50
2018-09-10T22:15:12.898Z,19.50
2018-09-10T22:17:41.884Z,19.40
2018-09-10T22:20:11.346Z,19.40
2018-09-10T22:22:39.807Z,19.50
2018-09-10T22:25:10.148Z,19.40
2018-09-10T22:27:39.171Z,19.40
2018-09-10T22:30:08.204Z,19.40
2018-09-10T22:32:36.663Z,19.40
2018-09-10T22:35:05.299Z,19.40
2018-09-10T22:37:33.808Z,19.50
2018-09-10T22:40:02.209Z,19.60
2018-09-10T22:42:31.285Z,19.70
2018-09-10T22:44:59.916Z,19.70
2018-09-10T22:47:28.801Z,19.70
2018-09-10T22:49:57.229Z,19.70
2018-09-10T22:52:25.885Z,19.50
2018-09-10T22:54:54.907Z,19.50
2018-09-10T22:57:24.133Z,19.50
2018-09-10T22:59:53.941Z,19.30
2018-09-10T23:02:22.492Z,19.30
2018-09-10T23:04:51.266Z,19.40
2018-09-10T23:07:19.764Z,19.30
2018-09-10T23:09:49.025Z,19.30
2018-09-10T23:12:17.593Z,19.30
2018-09-10T23:14:46.264Z,19.20
2018-09-10T23:17:14.978Z,19.10
2018-09-10T23:19:43.375Z,19.10
2018-09-10T23:22:11.789Z,19.10
2018-09-10T23:24:41.050Z,19.00
2018-09-10T23:27:09.564Z,19.10
2018-09-10T23:29:38.599Z,18.90
2018-09-10T23:32:07.228Z,19.00
2018-09-10T23:34:35.849Z,19.00
2018-09-10T23:37:04.697Z,18.90
2018-09-10T23:39:33.207Z,18.90
2018-09-10T23:42:01.850Z,19.00
2018-09-10T23:44:30.963Z,18.90
2018-09-10T23:46:59.904Z,18.90
2018-09-10T23:49:28.375Z,18.90
2018-09-10T23:51:56.997Z,18.80
2018-09-10T23:54:25.448Z,18.80
2018-09-10T23:56:54.057Z,18.80
2018-09-10T23:59:22.502Z,18.70
